createdAt,value
2019-06-26T00:02:21.718Z,8.15
2019-06-26T00:04:53.053Z,9.10
2019-06-26T00:07:24.319Z,8.25
2019-06-26T00:09:55.694Z,8.58
2019-06-26T00:12:27.033Z,9.63
2019-06-26T00:14:58.285Z,8.85
2019-06-26T00:17:29.632Z,8.55
2019-06-26T00:20:00.860Z,8.93
2019-06-26T00:22:32.225Z,9.25
2019-06-26T00:25:04.155Z,9.00
2019-06-26T00:27:36.075Z,8.33
2019-06-26T00:30:08.564Z,8.30
2019-06-26T00:32:39.926Z,10.60
2019-06-26T00:35:11.340Z,9.60
2019-06-26T00:37:42.655Z,8.73
2019-06-26T00:40:15.397Z,8.48
2019-06-26T00:42:46.689Z,8.08
2019-06-26T00:45:18.053Z,8.30
2019-06-26T00:47:49.342Z,9.58
2019-06-26T00:50:20.590Z,7.95
2019-06-26T00:52:52.870Z,10.30
2019-06-26T00:55:24.275Z,7.75
2019-06-26T00:57:55.494Z,11.38
2019-06-26T01:00:32.791Z,8.03
2019-06-26T01:03:04.208Z,8.38
2019-06-26T01:05:35.539Z,8.40
2019-06-26T01:08:06.803Z,9.10
2019-06-26T01:10:38.133Z,10.60
2019-06-26T01:13:09.406Z,8.73
2019-06-26T01:15:40.810Z,8.45
2019-06-26T01:18:12.175Z,8.23
2019-06-26T01:20:43.582Z,8.43
2019-06-26T01:23:15.223Z,8.65
2019-06-26T01:25:46.485Z,8.48
2019-06-26T01:28:17.883Z,9.05
2019-06-26T01:30:49.166Z,8.13
2019-06-26T01:33:20.507Z,9.78
2019-06-26T01:35:51.773Z,8.85
2019-06-26T01:38:23.017Z,7.90
2019-06-26T01:40:54.317Z,8.23
2019-06-26T01:43:25.721Z,9.20
2019-06-26T01:45:57.009Z,9.03
2019-06-26T01:48:28.273Z,9.35
2019-06-26T01:50:59.547Z,9.55
2019-06-26T01:53:30.778Z,11.20
2019-06-26T01:56:02.183Z,8.18
2019-06-26T01:58:33.584Z,9.13
2019-06-26T02:01:04.809Z,9.28
2019-06-26T02:03:36.170Z,8.88
2019-06-26T02:06:07.506Z,8.63
2019-06-26T02:08:38.766Z,11.40
2019-06-26T02:11:10.190Z,8.43
2019-06-26T02:13:41.444Z,9.15
2019-06-26T02:16:12.763Z,8.78
2019-06-26T02:18:48.267Z,9.20
2019-06-26T02:21:19.601Z,8.83
2019-06-26T02:23:50.945Z,10.13
2019-06-26T02:26:22.221Z,9.15
2019-06-26T02:28:53.621Z,9.38
2019-06-26T02:31:25.042Z,10.60
2019-06-26T02:33:56.331Z,8.85
2019-06-26T02:36:27.563Z,9.95
2019-06-26T02:38:58.895Z,11.20
2019-06-26T02:41:30.159Z,9.20
2019-06-26T02:44:01.457Z,10.13
2019-06-26T02:46:32.778Z,10.20
2019-06-26T02:49:04.070Z,9.88
2019-06-26T02:51:35.452Z,9.23
2019-06-26T02:56:42.104Z,10.03
2019-06-26T02:59:13.393Z,10.05
2019-06-26T03:01:44.777Z,10.08
2019-06-26T03:04:16.012Z,12.15
2019-06-26T03:06:47.295Z,10.75
2019-06-26T03:09:19.745Z,10.32
2019-06-26T03:11:51.064Z,11.00
2019-06-26T03:14:22.377Z,11.10
2019-06-26T03:16:53.734Z,11.33
2019-06-26T03:19:24.994Z,12.37
2019-06-26T03:21:56.400Z,11.30
2019-06-26T03:24:27.812Z,10.20
2019-06-26T03:26:59.121Z,13.95
2019-06-26T03:29:30.397Z,11.70
2019-06-26T03:32:01.738Z,10.03
2019-06-26T03:34:33.040Z,10.08
2019-06-26T03:37:04.359Z,12.63
2019-06-26T03:39:35.644Z,11.65
2019-06-26T03:42:06.913Z,11.33
2019-06-26T03:44:38.227Z,10.45
2019-06-26T03:47:09.553Z,12.40
2019-06-26T03:49:40.838Z,13.45
2019-06-26T03:52:12.089Z,12.82
2019-06-26T03:54:43.406Z,10.53
2019-06-26T03:57:14.730Z,11.40
2019-06-26T03:59:46.145Z,11.97
2019-06-26T04:02:17.619Z,11.25
2019-06-26T04:04:48.852Z,13.28
2019-06-26T04:07:20.053Z,11.40
2019-06-26T04:09:51.367Z,16.90
2019-06-26T04:12:22.678Z,10.68
2019-06-26T04:14:53.833Z,12.13
2019-06-26T04:17:26.143Z,12.23
2019-06-26T04:19:57.456Z,11.97
2019-06-26T04:22:28.699Z,11.93
2019-06-26T04:25:00.006Z,13.20
2019-06-26T04:27:32.344Z,12.73
2019-06-26T04:30:03.517Z,12.33
2019-06-26T04:32:34.729Z,12.45
2019-06-26T04:35:06.055Z,12.05
2019-06-26T04:37:37.404Z,12.55
2019-06-26T04:40:08.660Z,13.43
2019-06-26T04:42:39.870Z,13.53
2019-06-26T04:45:11.150Z,17.12
2019-06-26T04:47:42.414Z,14.30
2019-06-26T04:50:13.914Z,19.90
2019-06-26T04:52:45.085Z,15.28
2019-06-26T04:55:16.298Z,15.05
2019-06-26T04:57:47.528Z,13.32
2019-06-26T05:00:21.741Z,17.00
2019-06-26T05:02:51.623Z,13.45
2019-06-26T05:05:35.473Z,13.68
2019-06-26T05:07:55.749Z,13.00
2019-06-26T05:10:26.937Z,12.60
2019-06-26T05:12:58.131Z,16.02
2019-06-26T05:15:29.364Z,13.03
2019-06-26T05:18:00.681Z,13.30
2019-06-26T05:20:31.813Z,13.80
2019-06-26T05:23:03.165Z,15.45
2019-06-26T05:25:34.351Z,15.72
2019-06-26T05:28:08.230Z,12.20
2019-06-26T05:30:38.480Z,15.40
2019-06-26T05:33:09.696Z,13.13
2019-06-26T05:35:40.975Z,12.58
2019-06-26T05:38:12.132Z,12.65
2019-06-26T05:40:43.337Z,13.05
2019-06-26T05:43:14.608Z,15.38
2019-06-26T05:45:45.863Z,12.55
2019-06-26T05:48:17.066Z,16.17
2019-06-26T05:50:48.226Z,14.70
2019-06-26T05:53:19.484Z,12.80
2019-06-26T05:55:50.630Z,12.40
2019-06-26T05:58:21.799Z,13.58
2019-06-26T06:00:53.061Z,12.13
2019-06-26T06:03:24.328Z,11.85
2019-06-26T06:05:55.589Z,16.87
2019-06-26T06:08:26.742Z,19.85
2019-06-26T06:10:58.407Z,13.48
2019-06-26T06:13:29.814Z,15.60
2019-06-26T06:16:00.957Z,17.50
2019-06-26T06:18:32.159Z,15.80
2019-06-26T06:21:03.380Z,14.10
2019-06-26T06:23:34.835Z,13.20
2019-06-26T06:26:06.018Z,13.83
2019-06-26T06:28:37.183Z,12.80
2019-06-26T06:31:08.358Z,12.37
2019-06-26T06:33:39.584Z,12.45
2019-06-26T06:36:10.808Z,12.43
2019-06-26T06:38:41.956Z,12.00
2019-06-26T06:41:13.100Z,12.78
2019-06-26T06:43:44.244Z,13.48
2019-06-26T06:46:15.419Z,12.55
2019-06-26T06:48:46.576Z,12.45
2019-06-26T06:51:17.728Z,12.28
2019-06-26T06:53:48.911Z,12.35
2019-06-26T06:56:20.100Z,13.03
2019-06-26T06:58:51.318Z,14.98
2019-06-26T07:01:22.496Z,12.63
2019-06-26T07:03:53.663Z,12.70
2019-06-26T07:06:24.852Z,11.78
2019-06-26T07:08:56.038Z,13.98
2019-06-26T07:11:28.207Z,14.10
2019-06-26T07:13:59.391Z,13.05
2019-06-26T07:16:30.634Z,11.22
2019-06-26T07:19:01.798Z,13.65
2019-06-26T07:21:32.962Z,13.35
2019-06-26T07:24:04.149Z,12.10
2019-06-26T07:26:35.296Z,13.10
2019-06-26T07:29:06.529Z,11.78
2019-06-26T07:31:38.614Z,12.03
2019-06-26T07:34:09.868Z,12.05
2019-06-26T07:36:41.060Z,12.15
2019-06-26T07:39:12.261Z,12.18
2019-06-26T07:41:43.414Z,12.23
2019-06-26T07:44:14.604Z,12.23
2019-06-26T07:46:45.753Z,14.65
2019-06-26T07:49:16.940Z,12.13
2019-06-26T07:51:48.096Z,12.10
2019-06-26T07:54:19.326Z,12.10
2019-06-26T07:56:50.470Z,12.68
2019-06-26T07:59:21.688Z,11.22
2019-06-26T08:01:52.977Z,14.70
2019-06-26T08:04:24.217Z,11.45
2019-06-26T08:06:55.419Z,11.93
2019-06-26T08:09:26.628Z,12.05
2019-06-26T08:11:57.974Z,11.88
2019-06-26T08:14:29.154Z,12.60
2019-06-26T08:17:00.324Z,12.05
2019-06-26T08:19:31.649Z,12.18
2019-06-26T08:22:02.788Z,11.57
2019-06-26T08:24:34.008Z,11.75
2019-06-26T08:27:05.194Z,11.43
2019-06-26T08:29:36.367Z,11.33
2019-06-26T08:32:07.529Z,14.85
2019-06-26T08:34:39.732Z,11.48
2019-06-26T08:37:10.946Z,12.28
2019-06-26T08:39:42.108Z,12.20
2019-06-26T08:42:13.267Z,12.53
2019-06-26T08:44:44.452Z,12.03
2019-06-26T08:47:15.680Z,11.50
2019-06-26T08:49:46.887Z,12.30
2019-06-26T08:52:18.140Z,10.93
2019-06-26T08:54:49.350Z,12.88
2019-06-26T08:57:20.666Z,12.07
2019-06-26T08:59:51.824Z,12.45
2019-06-26T09:02:23.013Z,12.53
2019-06-26T09:04:54.206Z,11.90
2019-06-26T09:07:25.512Z,11.78
2019-06-26T09:09:56.770Z,12.53
2019-06-26T09:12:27.958Z,11.78
2019-06-26T09:14:59.182Z,10.95
2019-06-26T09:17:30.352Z,12.15
2019-06-26T09:20:01.682Z,12.30
2019-06-26T09:22:32.950Z,12.93
2019-06-26T09:25:20.329Z,10.93
2019-06-26T09:27:37.246Z,10.90
2019-06-26T09:30:08.974Z,11.18
2019-06-26T09:32:40.161Z,11.93
2019-06-26T09:35:11.335Z,11.30
2019-06-26T09:37:42.513Z,12.73
2019-06-26T09:40:14.699Z,11.50
2019-06-26T09:42:45.905Z,11.15
2019-06-26T09:45:17.195Z,11.43
2019-06-26T09:47:48.412Z,11.00
2019-06-26T09:50:19.723Z,11.85
2019-06-26T09:52:50.961Z,11.30
2019-06-26T09:55:22.212Z,11.20
2019-06-26T09:57:53.428Z,11.03
2019-06-26T10:00:24.887Z,11.28
2019-06-26T10:02:56.149Z,12.20
2019-06-26T10:05:27.333Z,12.47
2019-06-26T10:07:58.606Z,12.00
2019-06-26T10:10:29.863Z,11.70
2019-06-26T10:13:01.275Z,12.55
2019-06-26T10:15:32.572Z,11.55
2019-06-26T10:18:03.869Z,12.05
2019-06-26T10:20:36.180Z,12.03
2019-06-26T10:23:07.360Z,11.88
2019-06-26T10:25:38.707Z,14.00
2019-06-26T10:28:10.086Z,12.37
2019-06-26T10:30:41.372Z,13.45
2019-06-26T10:33:12.580Z,10.93
2019-06-26T10:35:43.839Z,14.58
2019-06-26T10:38:15.240Z,12.15
2019-06-26T10:40:46.452Z,13.05
2019-06-26T10:43:17.665Z,12.45
2019-06-26T10:45:48.873Z,13.80
2019-06-26T10:48:20.125Z,12.85
2019-06-26T10:50:58.185Z,13.18
2019-06-26T10:53:24.261Z,13.40
2019-06-26T10:55:55.538Z,13.43
2019-06-26T10:58:26.743Z,13.13
2019-06-26T11:00:58.087Z,12.82
2019-06-26T11:03:29.482Z,12.37
2019-06-26T11:06:00.943Z,11.43
2019-06-26T11:08:32.313Z,12.55
2019-06-26T11:11:03.664Z,13.03
2019-06-26T11:13:34.954Z,12.70
2019-06-26T11:16:06.349Z,13.28
2019-06-26T11:18:37.761Z,12.25
2019-06-26T11:21:08.982Z,11.38
2019-06-26T11:23:40.315Z,12.33
2019-06-26T11:26:11.584Z,11.78
2019-06-26T11:28:42.739Z,12.37
2019-06-26T11:31:14.082Z,13.03
2019-06-26T11:33:45.279Z,12.07
2019-06-26T11:36:16.609Z,12.25
2019-06-26T11:38:47.738Z,13.43
2019-06-26T11:41:19.080Z,12.93
2019-06-26T11:43:50.302Z,11.95
2019-06-26T11:46:21.730Z,14.75
2019-06-26T11:48:52.979Z,13.28
2019-06-26T11:51:24.208Z,11.93
2019-06-26T11:53:58.877Z,13.00
2019-06-26T11:56:29.591Z,11.70
2019-06-26T11:59:00.821Z,13.55
2019-06-26T12:01:32.038Z,15.53
2019-06-26T12:04:03.350Z,16.55
2019-06-26T12:06:34.584Z,13.98
2019-06-26T12:09:07.319Z,13.85
2019-06-26T12:11:38.772Z,13.90
2019-06-26T12:14:10.240Z,18.77
2019-06-26T12:16:41.657Z,12.75
2019-06-26T12:19:12.919Z,12.50
2019-06-26T12:21:44.224Z,14.75
2019-06-26T12:24:15.527Z,14.55
2019-06-26T12:26:47.842Z,13.20
2019-06-26T12:29:19.032Z,13.00
2019-06-26T12:31:50.439Z,12.90
2019-06-26T12:34:21.799Z,15.40
2019-06-26T12:36:53.067Z,13.03
2019-06-26T12:39:24.293Z,11.90
2019-06-26T12:41:55.590Z,11.45
2019-06-26T12:44:26.829Z,11.60
2019-06-26T12:46:58.225Z,12.75
2019-06-26T12:49:29.565Z,13.58
2019-06-26T12:52:00.771Z,15.38
2019-06-26T12:54:33.034Z,13.03
2019-06-26T12:57:04.305Z,13.95
2019-06-26T12:59:35.643Z,12.47
2019-06-26T13:02:06.866Z,12.90
2019-06-26T13:04:38.187Z,13.32
2019-06-26T13:07:10.409Z,14.07
2019-06-26T13:09:41.648Z,13.53
2019-06-26T13:12:12.922Z,13.20
2019-06-26T13:14:44.271Z,13.38
2019-06-26T13:17:15.429Z,15.03
2019-06-26T13:19:46.690Z,13.00
2019-06-26T13:22:18.105Z,11.78
2019-06-26T13:24:49.321Z,11.25
2019-06-26T13:27:20.519Z,11.65
2019-06-26T13:29:51.690Z,13.85
2019-06-26T13:32:23.015Z,13.88
2019-06-26T13:34:54.326Z,12.65
2019-06-26T13:37:25.495Z,12.45
2019-06-26T13:39:56.806Z,11.40
2019-06-26T13:42:28.324Z,15.32
2019-06-26T13:44:59.612Z,11.60
2019-06-26T13:47:30.810Z,12.23
2019-06-26T13:50:02.825Z,11.63
2019-06-26T13:52:34.204Z,12.18
2019-06-26T13:55:05.704Z,11.55
2019-06-26T13:57:36.975Z,12.00
2019-06-26T14:00:08.385Z,11.83
2019-06-26T14:02:39.685Z,14.47
2019-06-26T14:05:11.063Z,11.20
2019-06-26T14:07:42.312Z,11.63
2019-06-26T14:10:13.785Z,11.57
2019-06-26T14:12:45.004Z,10.65
2019-06-26T14:15:16.730Z,11.80
2019-06-26T14:17:48.046Z,11.70
2019-06-26T14:20:19.484Z,11.35
2019-06-26T14:22:51.314Z,11.22
2019-06-26T14:25:22.536Z,11.10
2019-06-26T14:27:53.733Z,15.43
2019-06-26T14:30:27.830Z,12.37
2019-06-26T14:32:57.894Z,11.93
2019-06-26T14:35:29.272Z,11.60
2019-06-26T14:38:00.537Z,12.75
2019-06-26T14:40:31.758Z,12.05
2019-06-26T14:43:02.935Z,13.72
2019-06-26T14:45:34.271Z,11.65
2019-06-26T14:48:05.466Z,10.75
2019-06-26T14:50:36.864Z,10.80
2019-06-26T14:53:08.118Z,14.13
2019-06-26T14:55:39.352Z,10.95
2019-06-26T14:58:10.615Z,10.10
2019-06-26T15:00:42.848Z,10.23
2019-06-26T15:03:14.108Z,10.05
2019-06-26T15:05:45.481Z,10.65
2019-06-26T15:08:16.706Z,8.28
2019-06-26T15:10:48.877Z,8.58
2019-06-26T15:13:20.077Z,9.28
2019-06-26T15:15:54.659Z,14.95
2019-06-26T15:18:25.313Z,9.03
2019-06-26T15:20:56.587Z,8.58
2019-06-26T15:23:27.982Z,7.62
2019-06-26T15:25:59.124Z,8.10
2019-06-26T15:28:30.460Z,11.05
2019-06-26T15:31:01.675Z,10.48
2019-06-26T15:33:36.490Z,8.15
2019-06-26T15:36:05.848Z,7.60
2019-06-26T15:38:37.073Z,9.45
2019-06-26T15:41:08.342Z,10.65
2019-06-26T15:43:39.604Z,7.87
2019-06-26T15:46:10.792Z,8.83
2019-06-26T15:48:42.020Z,9.08
2019-06-26T15:51:13.215Z,9.75
2019-06-26T15:53:44.416Z,9.53
2019-06-26T15:56:15.725Z,9.98
2019-06-26T15:58:47.012Z,10.50
2019-06-26T16:01:18.262Z,9.35
2019-06-26T16:03:49.500Z,8.88
2019-06-26T16:06:20.678Z,9.45
2019-06-26T16:08:52.838Z,10.20
2019-06-26T16:11:24.065Z,10.25
2019-06-26T16:13:55.333Z,9.03
2019-06-26T16:16:26.534Z,9.75
2019-06-26T16:19:05.559Z,9.63
2019-06-26T16:21:36.764Z,10.32
2019-06-26T16:24:07.936Z,10.85
2019-06-26T16:26:39.162Z,9.88
2019-06-26T16:29:10.338Z,10.15
2019-06-26T16:31:41.496Z,9.58
2019-06-26T16:34:12.730Z,9.65
2019-06-26T16:36:43.967Z,9.73
2019-06-26T16:39:15.340Z,10.05
2019-06-26T16:41:48.951Z,9.65
2019-06-26T16:44:19.700Z,8.58
2019-06-26T16:46:50.896Z,9.70
2019-06-26T16:49:22.209Z,8.40
2019-06-26T16:51:53.489Z,8.30
2019-06-26T16:54:24.834Z,9.15
2019-06-26T16:56:56.009Z,8.30
2019-06-26T16:59:28.272Z,8.10
2019-06-26T17:01:59.494Z,7.40
2019-06-26T17:04:30.872Z,10.58
2019-06-26T17:07:03.079Z,9.88
2019-06-26T17:09:34.256Z,7.42
2019-06-26T17:12:05.883Z,7.67
2019-06-26T17:14:37.581Z,7.65
2019-06-26T17:17:08.875Z,7.42
2019-06-26T17:19:40.022Z,7.67
2019-06-26T17:22:11.334Z,7.40
2019-06-26T17:24:42.542Z,7.47
2019-06-26T17:27:13.956Z,7.45
2019-06-26T17:29:45.413Z,7.50
2019-06-26T17:32:16.656Z,6.70
2019-06-26T17:34:48.077Z,7.28
2019-06-26T17:37:19.242Z,8.85
2019-06-26T17:39:50.611Z,7.20
2019-06-26T17:42:22.811Z,6.72
2019-06-26T17:44:54.072Z,8.40
2019-06-26T17:47:25.440Z,9.65
2019-06-26T17:49:56.711Z,5.87
2019-06-26T17:52:28.091Z,6.20
2019-06-26T17:54:59.332Z,5.75
2019-06-26T17:57:31.970Z,5.70
2019-06-26T18:00:05.547Z,6.08
2019-06-26T18:02:43.066Z,5.08
2019-06-26T18:05:14.875Z,6.78
2019-06-26T18:07:47.193Z,16.05
2019-06-26T18:10:18.893Z,6.72
2019-06-26T18:12:50.137Z,6.58
2019-06-26T18:15:21.376Z,8.05
2019-06-26T18:17:52.609Z,6.53
2019-06-26T18:20:24.045Z,7.30
2019-06-26T18:23:06.412Z,6.78
2019-06-26T18:25:28.208Z,6.00
2019-06-26T18:27:59.532Z,7.37
2019-06-26T18:30:30.851Z,14.60
2019-06-26T18:33:02.088Z,14.33
2019-06-26T18:35:34.451Z,9.38
2019-06-26T18:38:06.200Z,6.95
2019-06-26T18:40:37.720Z,8.93
2019-06-26T18:43:08.908Z,7.12
2019-06-26T18:45:40.138Z,7.83
2019-06-26T18:48:11.368Z,6.70
2019-06-26T18:50:42.631Z,6.95
2019-06-26T18:53:13.864Z,6.15
2019-06-26T18:55:46.249Z,6.62
2019-06-26T18:58:19.367Z,6.53
2019-06-26T19:00:51.674Z,6.47
2019-06-26T19:03:24.008Z,7.80
2019-06-26T19:05:57.152Z,7.20
2019-06-26T19:08:28.324Z,7.12
2019-06-26T19:10:59.571Z,6.72
2019-06-26T19:13:30.971Z,8.33
2019-06-26T19:16:04.522Z,7.45
2019-06-26T19:18:35.192Z,6.47
2019-06-26T19:21:06.380Z,7.62
2019-06-26T19:23:37.614Z,7.17
2019-06-26T19:26:08.800Z,7.95
2019-06-26T19:28:39.993Z,7.85
2019-06-26T19:31:11.594Z,7.83
2019-06-26T19:33:45.628Z,7.40
2019-06-26T19:36:15.921Z,7.78
2019-06-26T19:38:47.087Z,8.55
2019-06-26T19:41:19.489Z,6.78
2019-06-26T19:43:50.656Z,7.55
2019-06-26T19:46:21.991Z,7.40
2019-06-26T19:48:53.157Z,7.03
2019-06-26T19:51:24.345Z,7.22
2019-06-26T19:53:55.531Z,19.95
2019-06-26T19:56:26.839Z,20.60
2019-06-26T19:58:58.118Z,7.78
2019-06-26T20:01:29.251Z,24.63
2019-06-26T20:04:00.425Z,9.18
2019-06-26T20:06:31.717Z,8.53
2019-06-26T20:09:02.951Z,7.40
2019-06-26T20:11:34.557Z,7.85
2019-06-26T20:14:05.774Z,6.15
2019-06-26T20:16:36.926Z,7.30
2019-06-26T20:19:08.204Z,6.05
2019-06-26T20:21:39.465Z,6.37
2019-06-26T20:24:10.618Z,5.67
2019-06-26T20:26:42.809Z,6.08
2019-06-26T20:29:15.142Z,7.62
2019-06-26T20:31:48.103Z,6.45
2019-06-26T20:34:19.274Z,5.37
2019-06-26T20:36:50.537Z,8.65
2019-06-26T20:39:21.707Z,7.03
2019-06-26T20:41:53.046Z,5.10
2019-06-26T20:44:24.347Z,7.17
2019-06-26T20:46:55.552Z,4.50
2019-06-26T20:49:27.852Z,7.28
2019-06-26T20:51:59.116Z,4.62
2019-06-26T20:54:30.315Z,4.33
2019-06-26T20:57:01.499Z,5.08
2019-06-26T20:59:32.713Z,4.62
2019-06-26T21:02:03.994Z,7.72
2019-06-26T21:04:35.191Z,5.10
2019-06-26T21:07:06.771Z,4.80
2019-06-26T21:09:38.876Z,8.03
2019-06-26T21:12:10.089Z,7.97
2019-06-26T21:14:41.233Z,5.50
2019-06-26T21:17:15.570Z,5.65
2019-06-26T21:19:47.084Z,4.72
2019-06-26T21:22:18.489Z,6.17
2019-06-26T21:24:49.679Z,5.75
2019-06-26T21:27:20.840Z,6.67
2019-06-26T21:29:52.095Z,4.67
2019-06-26T21:32:23.244Z,4.05
2019-06-26T21:34:54.557Z,4.53
2019-06-26T21:37:25.771Z,5.92
2019-06-26T21:39:57.060Z,7.37
2019-06-26T21:42:28.233Z,4.85
2019-06-26T21:44:59.449Z,5.90
2019-06-26T21:47:30.755Z,4.95
2019-06-26T21:50:01.956Z,5.33
2019-06-26T21:52:33.237Z,5.00
2019-06-26T21:55:05.465Z,7.72
2019-06-26T21:57:54.480Z,4.97
2019-06-26T22:00:43.360Z,5.45
2019-06-26T22:03:32.370Z,5.10
2019-06-26T22:06:14.229Z,5.47
2019-06-26T22:08:47.306Z,8.98
2019-06-26T22:11:20.144Z,6.12
2019-06-26T22:13:51.613Z,6.85
2019-06-26T22:16:22.833Z,4.97
2019-06-26T22:18:54.306Z,6.90
2019-06-26T22:21:25.783Z,7.85
2019-06-26T22:23:57.925Z,5.75
2019-06-26T22:26:29.152Z,8.30
2019-06-26T22:29:00.317Z,8.50
2019-06-26T22:31:31.676Z,4.60
2019-06-26T22:34:02.920Z,5.03
2019-06-26T22:36:34.123Z,6.37
2019-06-26T22:39:05.808Z,9.08
2019-06-26T22:41:36.987Z,6.90
2019-06-26T22:44:09.199Z,6.47
2019-06-26T22:46:40.371Z,4.35
2019-06-26T22:49:11.541Z,9.33
2019-06-26T22:51:42.757Z,5.67
2019-06-26T22:54:14.021Z,4.65
2019-06-26T22:56:45.194Z,7.28
2019-06-26T22:59:16.448Z,5.53
2019-06-26T23:01:47.637Z,5.42
2019-06-26T23:04:18.895Z,6.70
2019-06-26T23:06:50.095Z,5.08
2019-06-26T23:09:21.262Z,7.45
2019-06-26T23:11:52.487Z,5.28
2019-06-26T23:14:23.648Z,9.68
2019-06-26T23:16:54.836Z,6.42
2019-06-26T23:19:25.989Z,6.55
2019-06-26T23:21:57.237Z,6.87
2019-06-26T23:24:28.399Z,6.25
2019-06-26T23:26:59.627Z,7.47
2019-06-26T23:29:30.898Z,6.65
2019-06-26T23:32:03.488Z,9.65
2019-06-26T23:34:34.844Z,6.08
2019-06-26T23:37:06.029Z,8.13
2019-06-26T23:39:37.315Z,5.45
2019-06-26T23:42:08.494Z,6.55
2019-06-26T23:44:39.790Z,8.53
2019-06-26T23:47:10.978Z,5.85
2019-06-26T23:49:42.221Z,7.15
2019-06-26T23:52:13.421Z,5.25
2019-06-26T23:54:44.566Z,6.83
2019-06-26T23:57:15.738Z,6.17
2019-06-26T23:59:46.930Z,5.33
